sensor_id;sensor_type;location;lat;lon;timestamp;P1;durP1;ratioP1;P2;durP2;ratioP2
76597;SDS011;65486;53.144;18.134;2024-01-30T00:01:10;27.80;;;12.50;;
76597;SDS011;65486;53.144;18.134;2024-01-30T00:03:49;22.80;;;11.20;;
76597;SDS011;65486;53.144;18.134;2024-01-30T00:06:18;33.90;;;14.20;;
76597;SDS011;65486;53.144;18.134;2024-01-30T00:08:49;25.90;;;11.50;;
76597;SDS011;65486;53.144;18.134;2024-01-30T00:11:16;27.70;;;12.20;;
76597;SDS011;65486;53.144;18.134;2024-01-30T00:13:43;26.30;;;12.70;;
76597;SDS011;65486;53.144;18.134;2024-01-30T00:16:22;24.10;;;10.80;;
76597;SDS011;65486;53.144;18.134;2024-01-30T00:18:54;24.40;;;11.30;;
76597;SDS011;65486;53.144;18.134;2024-01-30T00:21:28;30.20;;;12.50;;
76597;SDS011;65486;53.144;18.134;2024-01-30T00:23:55;35.90;;;15.10;;
76597;SDS011;65486;53.144;18.134;2024-01-30T00:26:22;22.30;;;10.60;;
76597;SDS011;65486;53.144;18.134;2024-01-30T00:28:49;19.90;;;9.50;;
76597;SDS011;65486;53.144;18.134;2024-01-30T00:31:16;26.60;;;12.20;;
76597;SDS011;65486;53.144;18.134;2024-01-30T00:33:43;26.20;;;10.90;;
76597;SDS011;65486;53.144;18.134;2024-01-30T00:36:11;25.10;;;11.70;;
76597;SDS011;65486;53.144;18.134;2024-01-30T00:38:38;31.80;;;14.60;;
76597;SDS011;65486;53.144;18.134;2024-01-30T00:41:10;24.00;;;10.50;;
76597;SDS011;65486;53.144;18.134;2024-01-30T00:43:37;23.90;;;11.10;;
76597;SDS011;65486;53.144;18.134;2024-01-30T00:46:04;24.20;;;12.10;;
76597;SDS011;65486;53.144;18.134;2024-01-30T00:48:31;20.90;;;10.40;;
76597;SDS011;65486;53.144;18.134;2024-01-30T00:50:58;22.10;;;10.00;;
76597;SDS011;65486;53.144;18.134;2024-01-30T00:53:25;24.90;;;11.40;;
76597;SDS011;65486;53.144;18.134;2024-01-30T00:55:55;21.90;;;10.00;;
76597;SDS011;65486;53.144;18.134;2024-01-30T00:58:21;31.00;;;13.40;;
76597;SDS011;65486;53.144;18.134;2024-01-30T01:00:49;31.40;;;15.00;;
76597;SDS011;65486;53.144;18.134;2024-01-30T01:03:16;26.80;;;12.00;;
76597;SDS011;65486;53.144;18.134;2024-01-30T01:05:42;27.20;;;12.40;;
76597;SDS011;65486;53.144;18.134;2024-01-30T01:08:11;24.10;;;11.00;;
76597;SDS011;65486;53.144;18.134;2024-01-30T01:10:38;28.00;;;12.10;;
76597;SDS011;65486;53.144;18.134;2024-01-30T01:13:05;26.50;;;11.80;;
76597;SDS011;65486;53.144;18.134;2024-01-30T01:15:32;28.20;;;13.70;;
76597;SDS011;65486;53.144;18.134;2024-01-30T01:18:02;23.40;;;11.80;;
76597;SDS011;65486;53.144;18.134;2024-01-30T01:20:29;42.90;;;18.60;;
76597;SDS011;65486;53.144;18.134;2024-01-30T01:22:56;45.10;;;20.60;;
76597;SDS011;65486;53.144;18.134;2024-01-30T01:25:23;31.20;;;15.00;;
76597;SDS011;65486;53.144;18.134;2024-01-30T01:27:51;34.80;;;14.90;;
76597;SDS011;65486;53.144;18.134;2024-01-30T01:30:19;29.80;;;13.10;;
76597;SDS011;65486;53.144;18.134;2024-01-30T01:32:50;29.40;;;13.80;;
76597;SDS011;65486;53.144;18.134;2024-01-30T01:35:30;33.00;;;14.20;;
76597;SDS011;65486;53.144;18.134;2024-01-30T01:37:57;31.60;;;15.80;;
76597;SDS011;65486;53.144;18.134;2024-01-30T01:40:27;32.50;;;12.70;;
76597;SDS011;65486;53.144;18.134;2024-01-30T01:42:54;45.30;;;18.50;;
76597;SDS011;65486;53.144;18.134;2024-01-30T01:45:22;30.00;;;14.00;;
76597;SDS011;65486;53.144;18.134;2024-01-30T01:47:52;30.30;;;13.80;;
76597;SDS011;65486;53.144;18.134;2024-01-30T01:50:20;29.70;;;12.50;;
76597;SDS011;65486;53.144;18.134;2024-01-30T01:52:52;28.40;;;12.60;;
76597;SDS011;65486;53.144;18.134;2024-01-30T01:55:23;24.90;;;11.80;;
76597;SDS011;65486;53.144;18.134;2024-01-30T01:57:54;23.10;;;11.20;;
76597;SDS011;65486;53.144;18.134;2024-01-30T02:00:21;29.00;;;13.50;;
76597;SDS011;65486;53.144;18.134;2024-01-30T02:02:50;34.50;;;15.60;;
76597;SDS011;65486;53.144;18.134;2024-01-30T02:05:23;22.60;;;10.10;;
76597;SDS011;65486;53.144;18.134;2024-01-30T02:07:52;26.20;;;11.90;;
76597;SDS011;65486;53.144;18.134;2024-01-30T02:10:19;26.90;;;10.80;;
76597;SDS011;65486;53.144;18.134;2024-01-30T02:12:48;20.80;;;9.30;;
76597;SDS011;65486;53.144;18.134;2024-01-30T02:15:20;27.00;;;11.90;;
76597;SDS011;65486;53.144;18.134;2024-01-30T02:17:48;21.10;;;10.10;;
76597;SDS011;65486;53.144;18.134;2024-01-30T02:20:15;21.70;;;10.10;;
76597;SDS011;65486;53.144;18.134;2024-01-30T02:22:42;20.90;;;9.60;;
76597;SDS011;65486;53.144;18.134;2024-01-30T02:25:09;39.70;;;15.80;;
76597;SDS011;65486;53.144;18.134;2024-01-30T02:27:36;23.20;;;11.50;;
76597;SDS011;65486;53.144;18.134;2024-01-30T02:30:08;25.90;;;11.40;;
76597;SDS011;65486;53.144;18.134;2024-01-30T02:32:36;32.50;;;13.70;;
76597;SDS011;65486;53.144;18.134;2024-01-30T02:35:03;31.50;;;12.60;;
76597;SDS011;65486;53.144;18.134;2024-01-30T02:37:30;31.60;;;13.90;;
76597;SDS011;65486;53.144;18.134;2024-01-30T02:39:57;21.60;;;10.40;;
76597;SDS011;65486;53.144;18.134;2024-01-30T02:42:24;23.10;;;10.70;;
76597;SDS011;65486;53.144;18.134;2024-01-30T02:44:51;21.60;;;10.50;;
76597;SDS011;65486;53.144;18.134;2024-01-30T02:47:18;22.10;;;9.70;;
76597;SDS011;65486;53.144;18.134;2024-01-30T02:49:45;49.40;;;19.10;;
76597;SDS011;65486;53.144;18.134;2024-01-30T02:52:13;46.40;;;18.00;;
76597;SDS011;65486;53.144;18.134;2024-01-30T02:54:43;30.70;;;12.40;;
76597;SDS011;65486;53.144;18.134;2024-01-30T02:57:10;35.10;;;14.30;;
76597;SDS011;65486;53.144;18.134;2024-01-30T02:59:37;36.60;;;15.70;;
76597;SDS011;65486;53.144;18.134;2024-01-30T03:02:04;29.40;;;12.30;;
76597;SDS011;65486;53.144;18.134;2024-01-30T03:04:30;22.80;;;10.60;;
76597;SDS011;65486;53.144;18.134;2024-01-30T03:06:57;26.60;;;12.00;;
76597;SDS011;65486;53.144;18.134;2024-01-30T03:09:25;41.00;;;16.50;;
76597;SDS011;65486;53.144;18.134;2024-01-30T03:11:52;26.60;;;11.50;;
76597;SDS011;65486;53.144;18.134;2024-01-30T03:14:19;23.70;;;10.80;;
76597;SDS011;65486;53.144;18.134;2024-01-30T03:16:46;23.20;;;10.20;;
76597;SDS011;65486;53.144;18.134;2024-01-30T03:19:13;24.30;;;11.10;;
76597;SDS011;65486;53.144;18.134;2024-01-30T03:21:40;24.20;;;11.30;;
76597;SDS011;65486;53.144;18.134;2024-01-30T03:24:08;21.30;;;10.40;;
76597;SDS011;65486;53.144;18.134;2024-01-30T03:26:36;23.20;;;11.00;;
76597;SDS011;65486;53.144;18.134;2024-01-30T03:29:05;36.00;;;15.50;;
76597;SDS011;65486;53.144;18.134;2024-01-30T03:31:32;27.00;;;12.70;;
76597;SDS011;65486;53.144;18.134;2024-01-30T03:34:03;25.10;;;11.60;;
76597;SDS011;65486;53.144;18.134;2024-01-30T03:36:29;36.20;;;15.10;;
76597;SDS011;65486;53.144;18.134;2024-01-30T03:38:59;28.10;;;13.80;;
76597;SDS011;65486;53.144;18.134;2024-01-30T03:41:27;26.30;;;13.60;;
76597;SDS011;65486;53.144;18.134;2024-01-30T03:43:53;29.10;;;12.40;;
76597;SDS011;65486;53.144;18.134;2024-01-30T03:46:22;24.00;;;11.70;;
76597;SDS011;65486;53.144;18.134;2024-01-30T03:48:55;29.10;;;12.40;;
76597;SDS011;65486;53.144;18.134;2024-01-30T03:51:24;32.30;;;14.80;;
76597;SDS011;65486;53.144;18.134;2024-01-30T03:53:51;44.00;;;17.80;;
76597;SDS011;65486;53.144;18.134;2024-01-30T03:56:20;36.90;;;16.80;;
76597;SDS011;65486;53.144;18.134;2024-01-30T03:58:47;27.70;;;13.70;;
76597;SDS011;65486;53.144;18.134;2024-01-30T04:01:14;31.40;;;15.40;;
76597;SDS011;65486;53.144;18.134;2024-01-30T04:03:41;22.90;;;12.00;;
76597;SDS011;65486;53.144;18.134;2024-01-30T04:06:11;32.90;;;15.60;;
76597;SDS011;65486;53.144;18.134;2024-01-30T04:08:41;27.80;;;12.70;;
76597;SDS011;65486;53.144;18.134;2024-01-30T04:11:10;30.40;;;13.30;;
76597;SDS011;65486;53.144;18.134;2024-01-30T04:13:38;28.30;;;13.20;;
76597;SDS011;65486;53.144;18.134;2024-01-30T04:16:06;28.00;;;12.20;;
76597;SDS011;65486;53.144;18.134;2024-01-30T04:18:33;26.30;;;11.40;;
76597;SDS011;65486;53.144;18.134;2024-01-30T04:21:00;20.90;;;10.70;;
76597;SDS011;65486;53.144;18.134;2024-01-30T04:23:27;25.80;;;10.70;;
76597;SDS011;65486;53.144;18.134;2024-01-30T04:26:04;22.40;;;10.00;;
76597;SDS011;65486;53.144;18.134;2024-01-30T04:28:31;31.20;;;12.90;;
76597;SDS011;65486;53.144;18.134;2024-01-30T04:30:58;26.00;;;11.80;;
76597;SDS011;65486;53.144;18.134;2024-01-30T04:33:34;26.50;;;12.50;;
76597;SDS011;65486;53.144;18.134;2024-01-30T04:36:01;24.40;;;11.50;;
76597;SDS011;65486;53.144;18.134;2024-01-30T04:38:31;21.50;;;10.00;;
76597;SDS011;65486;53.144;18.134;2024-01-30T04:40:58;39.10;;;17.40;;
76597;SDS011;65486;53.144;18.134;2024-01-30T04:43:25;29.90;;;13.60;;
76597;SDS011;65486;53.144;18.134;2024-01-30T04:45:53;34.60;;;14.60;;
76597;SDS011;65486;53.144;18.134;2024-01-30T04:48:26;40.40;;;19.30;;
76597;SDS011;65486;53.144;18.134;2024-01-30T04:50:53;38.10;;;18.10;;
76597;SDS011;65486;53.144;18.134;2024-01-30T04:53:21;37.40;;;17.70;;
76597;SDS011;65486;53.144;18.134;2024-01-30T04:55:48;43.00;;;18.50;;
76597;SDS011;65486;53.144;18.134;2024-01-30T04:58:15;43.10;;;18.40;;
76597;SDS011;65486;53.144;18.134;2024-01-30T05:00:41;48.80;;;20.60;;
76597;SDS011;65486;53.144;18.134;2024-01-30T05:03:09;42.30;;;16.90;;
76597;SDS011;65486;53.144;18.134;2024-01-30T05:05:36;34.90;;;14.30;;
76597;SDS011;65486;53.144;18.134;2024-01-30T05:08:03;35.90;;;16.50;;
76597;SDS011;65486;53.144;18.134;2024-01-30T05:10:31;27.70;;;12.90;;
76597;SDS011;65486;53.144;18.134;2024-01-30T05:12:58;32.00;;;13.30;;
76597;SDS011;65486;53.144;18.134;2024-01-30T05:15:25;31.70;;;13.00;;
76597;SDS011;65486;53.144;18.134;2024-01-30T05:17:52;30.60;;;12.60;;
76597;SDS011;65486;53.144;18.134;2024-01-30T05:20:19;27.30;;;11.70;;
76597;SDS011;65486;53.144;18.134;2024-01-30T05:22:46;32.20;;;12.90;;
76597;SDS011;65486;53.144;18.134;2024-01-30T05:25:13;49.00;;;20.50;;
76597;SDS011;65486;53.144;18.134;2024-01-30T05:27:41;37.90;;;14.70;;
76597;SDS011;65486;53.144;18.134;2024-01-30T05:30:09;30.10;;;14.10;;
76597;SDS011;65486;53.144;18.134;2024-01-30T05:32:37;63.70;;;22.80;;
76597;SDS011;65486;53.144;18.134;2024-01-30T05:35:04;35.90;;;15.50;;
76597;SDS011;65486;53.144;18.134;2024-01-30T05:37:31;48.90;;;19.10;;
76597;SDS011;65486;53.144;18.134;2024-01-30T05:39:58;52.50;;;20.80;;
76597;SDS011;65486;53.144;18.134;2024-01-30T05:42:25;35.50;;;15.60;;
76597;SDS011;65486;53.144;18.134;2024-01-30T05:44:54;60.40;;;21.10;;
76597;SDS011;65486;53.144;18.134;2024-01-30T05:47:22;46.00;;;19.30;;
76597;SDS011;65486;53.144;18.134;2024-01-30T05:49:50;70.30;;;25.80;;
76597;SDS011;65486;53.144;18.134;2024-01-30T05:52:17;75.90;;;25.50;;
76597;SDS011;65486;53.144;18.134;2024-01-30T05:54:45;56.60;;;21.10;;
76597;SDS011;65486;53.144;18.134;2024-01-30T05:57:12;53.40;;;20.20;;
76597;SDS011;65486;53.144;18.134;2024-01-30T05:59:39;48.00;;;17.60;;
76597;SDS011;65486;53.144;18.134;2024-01-30T06:02:07;59.50;;;18.60;;
76597;SDS011;65486;53.144;18.134;2024-01-30T06:04:35;39.90;;;15.90;;
76597;SDS011;65486;53.144;18.134;2024-01-30T06:07:17;47.10;;;18.90;;
76597;SDS011;65486;53.144;18.134;2024-01-30T06:09:44;41.30;;;15.90;;
76597;SDS011;65486;53.144;18.134;2024-01-30T06:12:12;39.40;;;13.90;;
76597;SDS011;65486;53.144;18.134;2024-01-30T06:14:39;45.50;;;18.50;;
76597;SDS011;65486;53.144;18.134;2024-01-30T06:17:08;37.00;;;14.60;;
76597;SDS011;65486;53.144;18.134;2024-01-30T06:19:37;32.50;;;14.30;;
76597;SDS011;65486;53.144;18.134;2024-01-30T06:22:06;34.80;;;14.50;;
76597;SDS011;65486;53.144;18.134;2024-01-30T06:24:34;61.60;;;22.00;;
76597;SDS011;65486;53.144;18.134;2024-01-30T06:27:01;37.70;;;14.50;;
76597;SDS011;65486;53.144;18.134;2024-01-30T06:29:28;37.10;;;14.30;;
76597;SDS011;65486;53.144;18.134;2024-01-30T06:31:57;42.90;;;15.90;;
76597;SDS011;65486;53.144;18.134;2024-01-30T06:34:24;37.70;;;17.00;;
76597;SDS011;65486;53.144;18.134;2024-01-30T06:36:53;35.90;;;14.30;;
76597;SDS011;65486;53.144;18.134;2024-01-30T06:39:21;32.80;;;14.10;;
76597;SDS011;65486;53.144;18.134;2024-01-30T06:41:49;59.70;;;22.40;;
76597;SDS011;65486;53.144;18.134;2024-01-30T06:44:16;40.20;;;15.30;;
76597;SDS011;65486;53.144;18.134;2024-01-30T06:46:43;44.60;;;16.50;;
76597;SDS011;65486;53.144;18.134;2024-01-30T06:49:10;29.60;;;13.40;;
76597;SDS011;65486;53.144;18.134;2024-01-30T06:51:37;36.00;;;13.70;;
76597;SDS011;65486;53.144;18.134;2024-01-30T06:54:07;38.70;;;16.10;;
76597;SDS011;65486;53.144;18.134;2024-01-30T06:56:37;39.00;;;16.40;;
76597;SDS011;65486;53.144;18.134;2024-01-30T06:59:07;34.00;;;13.60;;
76597;SDS011;65486;53.144;18.134;2024-01-30T07:01:52;34.90;;;14.60;;
76597;SDS011;65486;53.144;18.134;2024-01-30T07:04:21;53.20;;;21.20;;
76597;SDS011;65486;53.144;18.134;2024-01-30T07:06:50;38.00;;;16.10;;
76597;SDS011;65486;53.144;18.134;2024-01-30T07:09:17;29.60;;;12.60;;
76597;SDS011;65486;53.144;18.134;2024-01-30T07:11:51;27.30;;;13.00;;
76597;SDS011;65486;53.144;18.134;2024-01-30T07:14:26;38.40;;;16.90;;
76597;SDS011;65486;53.144;18.134;2024-01-30T07:16:55;32.10;;;12.90;;
76597;SDS011;65486;53.144;18.134;2024-01-30T07:19:44;27.70;;;12.40;;
76597;SDS011;65486;53.144;18.134;2024-01-30T07:22:12;23.80;;;10.50;;
76597;SDS011;65486;53.144;18.134;2024-01-30T07:24:42;26.40;;;12.80;;
76597;SDS011;65486;53.144;18.134;2024-01-30T07:27:15;45.50;;;19.50;;
76597;SDS011;65486;53.144;18.134;2024-01-30T07:29:44;29.00;;;13.10;;
76597;SDS011;65486;53.144;18.134;2024-01-30T07:32:31;54.90;;;23.00;;
76597;SDS011;65486;53.144;18.134;2024-01-30T07:35:12;43.20;;;19.30;;
76597;SDS011;65486;53.144;18.134;2024-01-30T07:37:48;44.60;;;19.00;;
76597;SDS011;65486;53.144;18.134;2024-01-30T07:40:18;27.20;;;12.50;;
76597;SDS011;65486;53.144;18.134;2024-01-30T07:42:45;32.20;;;14.70;;
76597;SDS011;65486;53.144;18.134;2024-01-30T07:45:12;37.40;;;17.10;;
76597;SDS011;65486;53.144;18.134;2024-01-30T07:47:39;40.20;;;18.30;;
76597;SDS011;65486;53.144;18.134;2024-01-30T07:50:06;43.50;;;20.60;;
76597;SDS011;65486;53.144;18.134;2024-01-30T07:52:37;32.60;;;15.40;;
76597;SDS011;65486;53.144;18.134;2024-01-30T07:55:07;36.30;;;15.70;;
76597;SDS011;65486;53.144;18.134;2024-01-30T07:57:35;50.40;;;22.70;;
76597;SDS011;65486;53.144;18.134;2024-01-30T08:00:02;56.70;;;25.10;;
76597;SDS011;65486;53.144;18.134;2024-01-30T08:02:33;47.00;;;20.30;;
76597;SDS011;65486;53.144;18.134;2024-01-30T08:05:01;54.10;;;24.30;;
76597;SDS011;65486;53.144;18.134;2024-01-30T08:07:31;44.60;;;19.00;;
76597;SDS011;65486;53.144;18.134;2024-01-30T08:09:59;34.50;;;15.30;;
76597;SDS011;65486;53.144;18.134;2024-01-30T08:12:30;42.70;;;17.40;;
76597;SDS011;65486;53.144;18.134;2024-01-30T08:14:57;33.40;;;15.80;;
76597;SDS011;65486;53.144;18.134;2024-01-30T08:17:26;32.20;;;14.10;;
76597;SDS011;65486;53.144;18.134;2024-01-30T08:19:53;49.20;;;22.70;;
76597;SDS011;65486;53.144;18.134;2024-01-30T08:22:20;47.50;;;21.60;;
76597;SDS011;65486;53.144;18.134;2024-01-30T08:24:47;48.40;;;21.50;;
76597;SDS011;65486;53.144;18.134;2024-01-30T08:27:16;41.90;;;18.70;;
76597;SDS011;65486;53.144;18.134;2024-01-30T08:29:44;48.30;;;22.00;;
76597;SDS011;65486;53.144;18.134;2024-01-30T08:32:11;44.40;;;20.30;;
76597;SDS011;65486;53.144;18.134;2024-01-30T08:34:39;49.40;;;21.90;;
76597;SDS011;65486;53.144;18.134;2024-01-30T08:37:06;57.60;;;26.40;;
76597;SDS011;65486;53.144;18.134;2024-01-30T08:39:33;59.30;;;26.40;;
76597;SDS011;65486;53.144;18.134;2024-01-30T08:42:02;60.30;;;25.90;;
76597;SDS011;65486;53.144;18.134;2024-01-30T08:44:29;58.70;;;27.40;;
76597;SDS011;65486;53.144;18.134;2024-01-30T08:46:56;57.40;;;26.30;;
76597;SDS011;65486;53.144;18.134;2024-01-30T08:49:23;65.00;;;27.40;;
76597;SDS011;65486;53.144;18.134;2024-01-30T08:51:50;53.70;;;27.00;;
76597;SDS011;65486;53.144;18.134;2024-01-30T08:54:17;53.70;;;24.90;;
76597;SDS011;65486;53.144;18.134;2024-01-30T08:56:45;45.60;;;22.10;;
76597;SDS011;65486;53.144;18.134;2024-01-30T08:59:12;46.60;;;21.50;;
76597;SDS011;65486;53.144;18.134;2024-01-30T09:01:39;43.70;;;21.50;;
76597;SDS011;65486;53.144;18.134;2024-01-30T09:04:09;41.20;;;21.40;;
76597;SDS011;65486;53.144;18.134;2024-01-30T09:06:37;43.70;;;21.10;;
76597;SDS011;65486;53.144;18.134;2024-01-30T09:09:23;42.20;;;21.80;;
76597;SDS011;65486;53.144;18.134;2024-01-30T09:11:53;41.40;;;20.50;;
76597;SDS011;65486;53.144;18.134;2024-01-30T09:14:20;39.70;;;19.70;;
76597;SDS011;65486;53.144;18.134;2024-01-30T09:16:47;38.60;;;19.90;;
76597;SDS011;65486;53.144;18.134;2024-01-30T09:19:15;34.50;;;18.30;;
76597;SDS011;65486;53.144;18.134;2024-01-30T09:21:47;33.00;;;17.10;;
76597;SDS011;65486;53.144;18.134;2024-01-30T09:24:14;37.70;;;18.60;;
76597;SDS011;65486;53.144;18.134;2024-01-30T09:26:43;37.50;;;19.30;;
76597;SDS011;65486;53.144;18.134;2024-01-30T09:29:13;40.30;;;19.60;;
76597;SDS011;65486;53.144;18.134;2024-01-30T09:31:42;32.70;;;17.40;;
76597;SDS011;65486;53.144;18.134;2024-01-30T09:34:10;31.30;;;17.00;;
76597;SDS011;65486;53.144;18.134;2024-01-30T09:36:42;32.10;;;17.60;;
76597;SDS011;65486;53.144;18.134;2024-01-30T09:39:10;35.30;;;18.70;;
76597;SDS011;65486;53.144;18.134;2024-01-30T09:41:41;33.60;;;18.60;;
76597;SDS011;65486;53.144;18.134;2024-01-30T09:44:37;30.80;;;17.00;;
76597;SDS011;65486;53.144;18.134;2024-01-30T09:47:08;27.00;;;15.10;;
76597;SDS011;65486;53.144;18.134;2024-01-30T09:49:36;26.10;;;13.90;;
76597;SDS011;65486;53.144;18.134;2024-01-30T09:52:05;27.90;;;14.70;;
76597;SDS011;65486;53.144;18.134;2024-01-30T09:54:33;27.20;;;15.10;;
76597;SDS011;65486;53.144;18.134;2024-01-30T09:57:02;26.50;;;13.90;;
76597;SDS011;65486;53.144;18.134;2024-01-30T09:59:29;28.30;;;14.50;;
76597;SDS011;65486;53.144;18.134;2024-01-30T10:01:57;30.50;;;15.10;;
76597;SDS011;65486;53.144;18.134;2024-01-30T10:04:26;25.00;;;13.60;;
76597;SDS011;65486;53.144;18.134;2024-01-30T10:06:53;23.80;;;13.70;;
76597;SDS011;65486;53.144;18.134;2024-01-30T10:09:20;29.90;;;15.30;;
76597;SDS011;65486;53.144;18.134;2024-01-30T10:11:48;27.40;;;14.10;;
76597;SDS011;65486;53.144;18.134;2024-01-30T10:14:17;28.00;;;14.20;;
76597;SDS011;65486;53.144;18.134;2024-01-30T10:16:45;19.20;;;9.50;;
76597;SDS011;65486;53.144;18.134;2024-01-30T10:19:13;30.80;;;13.60;;
76597;SDS011;65486;53.144;18.134;2024-01-30T10:21:40;25.10;;;13.70;;
76597;SDS011;65486;53.144;18.134;2024-01-30T10:24:07;29.70;;;15.20;;
76597;SDS011;65486;53.144;18.134;2024-01-30T10:26:34;26.00;;;13.80;;
76597;SDS011;65486;53.144;18.134;2024-01-30T10:29:01;29.30;;;15.90;;
76597;SDS011;65486;53.144;18.134;2024-01-30T10:31:29;22.50;;;12.10;;
76597;SDS011;65486;53.144;18.134;2024-01-30T10:33:56;26.40;;;13.10;;
76597;SDS011;65486;53.144;18.134;2024-01-30T10:36:26;26.30;;;14.30;;
76597;SDS011;65486;53.144;18.134;2024-01-30T10:39:04;19.90;;;9.70;;
76597;SDS011;65486;53.144;18.134;2024-01-30T10:41:37;28.80;;;14.40;;
76597;SDS011;65486;53.144;18.134;2024-01-30T10:44:11;29.20;;;13.40;;
76597;SDS011;65486;53.144;18.134;2024-01-30T10:46:38;21.40;;;10.50;;
76597;SDS011;65486;53.144;18.134;2024-01-30T10:49:09;29.70;;;14.00;;
76597;SDS011;65486;53.144;18.134;2024-01-30T10:51:37;25.10;;;11.50;;
76597;SDS011;65486;53.144;18.134;2024-01-30T10:54:06;19.50;;;9.50;;
76597;SDS011;65486;53.144;18.134;2024-01-30T10:56:35;24.40;;;11.90;;
76597;SDS011;65486;53.144;18.134;2024-01-30T10:59:03;21.30;;;11.50;;
76597;SDS011;65486;53.144;18.134;2024-01-30T11:01:32;21.00;;;9.90;;
76597;SDS011;65486;53.144;18.134;2024-01-30T11:03:59;21.00;;;10.90;;
76597;SDS011;65486;53.144;18.134;2024-01-30T11:06:26;20.00;;;10.60;;
76597;SDS011;65486;53.144;18.134;2024-01-30T11:09:00;17.70;;;7.70;;
76597;SDS011;65486;53.144;18.134;2024-01-30T11:11:51;20.30;;;10.30;;
76597;SDS011;65486;53.144;18.134;2024-01-30T11:14:24;20.80;;;9.70;;
76597;SDS011;65486;53.144;18.134;2024-01-30T11:16:53;16.20;;;8.50;;
76597;SDS011;65486;53.144;18.134;2024-01-30T11:19:24;20.50;;;10.00;;
76597;SDS011;65486;53.144;18.134;2024-01-30T11:21:54;21.20;;;8.70;;
76597;SDS011;65486;53.144;18.134;2024-01-30T11:24:26;19.20;;;9.30;;
76597;SDS011;65486;53.144;18.134;2024-01-30T11:26:57;20.40;;;10.20;;
76597;SDS011;65486;53.144;18.134;2024-01-30T11:29:29;20.40;;;10.00;;
76597;SDS011;65486;53.144;18.134;2024-01-30T11:31:57;23.00;;;10.40;;
76597;SDS011;65486;53.144;18.134;2024-01-30T11:34:25;27.00;;;12.30;;
76597;SDS011;65486;53.144;18.134;2024-01-30T11:36:56;17.60;;;8.50;;
76597;SDS011;65486;53.144;18.134;2024-01-30T11:39:25;16.90;;;8.70;;
76597;SDS011;65486;53.144;18.134;2024-01-30T11:41:53;25.40;;;12.00;;
76597;SDS011;65486;53.144;18.134;2024-01-30T11:44:22;22.10;;;10.90;;
76597;SDS011;65486;53.144;18.134;2024-01-30T11:46:55;18.40;;;8.30;;
76597;SDS011;65486;53.144;18.134;2024-01-30T11:49:26;21.60;;;9.50;;
76597;SDS011;65486;53.144;18.134;2024-01-30T11:51:58;24.10;;;10.80;;
76597;SDS011;65486;53.144;18.134;2024-01-30T11:54:25;17.90;;;8.90;;
76597;SDS011;65486;53.144;18.134;2024-01-30T11:56:55;13.00;;;6.30;;
76597;SDS011;65486;53.144;18.134;2024-01-30T11:59:22;18.90;;;9.00;;
76597;SDS011;65486;53.144;18.134;2024-01-30T12:01:48;22.20;;;7.60;;
76597;SDS011;65486;53.144;18.134;2024-01-30T12:04:15;14.70;;;7.30;;
76597;SDS011;65486;53.144;18.134;2024-01-30T12:06:43;21.50;;;9.60;;
76597;SDS011;65486;53.144;18.134;2024-01-30T12:09:11;17.70;;;6.90;;
76597;SDS011;65486;53.144;18.134;2024-01-30T12:11:44;16.30;;;7.20;;
76597;SDS011;65486;53.144;18.134;2024-01-30T12:14:13;17.30;;;9.10;;
76597;SDS011;65486;53.144;18.134;2024-01-30T12:16:41;15.00;;;7.40;;
76597;SDS011;65486;53.144;18.134;2024-01-30T12:19:08;25.30;;;11.30;;
76597;SDS011;65486;53.144;18.134;2024-01-30T12:21:38;22.90;;;10.50;;
76597;SDS011;65486;53.144;18.134;2024-01-30T12:24:05;20.40;;;9.40;;
76597;SDS011;65486;53.144;18.134;2024-01-30T12:26:35;20.90;;;9.90;;
76597;SDS011;65486;53.144;18.134;2024-01-30T12:29:06;16.50;;;8.50;;
76597;SDS011;65486;53.144;18.134;2024-01-30T12:31:43;19.00;;;9.40;;
76597;SDS011;65486;53.144;18.134;2024-01-30T12:34:13;16.90;;;7.60;;
76597;SDS011;65486;53.144;18.134;2024-01-30T12:36:41;16.80;;;7.90;;
76597;SDS011;65486;53.144;18.134;2024-01-30T12:39:10;20.70;;;9.80;;
76597;SDS011;65486;53.144;18.134;2024-01-30T12:41:40;16.90;;;8.10;;
76597;SDS011;65486;53.144;18.134;2024-01-30T12:44:10;18.10;;;9.30;;
76597;SDS011;65486;53.144;18.134;2024-01-30T12:46:40;17.80;;;8.90;;
76597;SDS011;65486;53.144;18.134;2024-01-30T12:49:16;15.50;;;7.30;;
76597;SDS011;65486;53.144;18.134;2024-01-30T12:51:43;18.40;;;8.30;;
76597;SDS011;65486;53.144;18.134;2024-01-30T12:54:12;22.40;;;9.40;;
76597;SDS011;65486;53.144;18.134;2024-01-30T12:56:39;18.60;;;8.70;;
76597;SDS011;65486;53.144;18.134;2024-01-30T12:59:06;15.50;;;7.40;;
76597;SDS011;65486;53.144;18.134;2024-01-30T13:01:33;20.10;;;9.90;;
76597;SDS011;65486;53.144;18.134;2024-01-30T13:04:01;18.00;;;8.70;;
76597;SDS011;65486;53.144;18.134;2024-01-30T13:06:31;19.80;;;8.20;;
76597;SDS011;65486;53.144;18.134;2024-01-30T13:09:00;14.70;;;7.40;;
76597;SDS011;65486;53.144;18.134;2024-01-30T13:11:27;15.70;;;7.50;;
76597;SDS011;65486;53.144;18.134;2024-01-30T13:13:54;19.30;;;8.40;;
76597;SDS011;65486;53.144;18.134;2024-01-30T13:16:21;19.70;;;8.30;;
76597;SDS011;65486;53.144;18.134;2024-01-30T13:18:48;19.00;;;8.50;;
76597;SDS011;65486;53.144;18.134;2024-01-30T13:21:15;13.00;;;6.20;;
76597;SDS011;65486;53.144;18.134;2024-01-30T13:23:43;16.20;;;8.10;;
76597;SDS011;65486;53.144;18.134;2024-01-30T13:26:12;14.00;;;6.90;;
76597;SDS011;65486;53.144;18.134;2024-01-30T13:28:39;15.60;;;7.10;;
76597;SDS011;65486;53.144;18.134;2024-01-30T13:31:06;16.70;;;6.70;;
76597;SDS011;65486;53.144;18.134;2024-01-30T13:33:33;21.20;;;10.20;;
76597;SDS011;65486;53.144;18.134;2024-01-30T13:36:01;24.70;;;9.30;;
76597;SDS011;65486;53.144;18.134;2024-01-30T13:38:29;19.90;;;9.60;;
76597;SDS011;65486;53.144;18.134;2024-01-30T13:40:56;20.30;;;8.20;;
76597;SDS011;65486;53.144;18.134;2024-01-30T13:43:24;16.90;;;9.30;;
76597;SDS011;65486;53.144;18.134;2024-01-30T13:45:52;16.60;;;7.30;;
76597;SDS011;65486;53.144;18.134;2024-01-30T13:48:20;20.70;;;9.10;;
76597;SDS011;65486;53.144;18.134;2024-01-30T13:50:47;21.80;;;9.80;;
76597;SDS011;65486;53.144;18.134;2024-01-30T13:53:14;21.80;;;9.50;;
76597;SDS011;65486;53.144;18.134;2024-01-30T13:55:41;21.40;;;9.40;;
76597;SDS011;65486;53.144;18.134;2024-01-30T13:58:08;21.90;;;9.80;;
76597;SDS011;65486;53.144;18.134;2024-01-30T14:00:38;16.80;;;8.30;;
76597;SDS011;65486;53.144;18.134;2024-01-30T14:03:08;19.40;;;8.00;;
76597;SDS011;65486;53.144;18.134;2024-01-30T14:05:37;20.90;;;9.50;;
76597;SDS011;65486;53.144;18.134;2024-01-30T14:08:06;22.00;;;8.60;;
76597;SDS011;65486;53.144;18.134;2024-01-30T14:10:35;20.60;;;9.10;;
76597;SDS011;65486;53.144;18.134;2024-01-30T14:13:02;21.50;;;9.70;;
76597;SDS011;65486;53.144;18.134;2024-01-30T14:15:30;19.80;;;8.60;;
76597;SDS011;65486;53.144;18.134;2024-01-30T14:17:57;13.90;;;6.70;;
76597;SDS011;65486;53.144;18.134;2024-01-30T14:20:26;19.50;;;9.10;;